createdAt,value
2023-01-13T00:02:23.725Z,6.80
2023-01-13T00:05:10.244Z,6.80
2023-01-13T00:07:56.377Z,6.80
2023-01-13T00:10:48.418Z,6.80
2023-01-13T00:13:35.353Z,6.80
2023-01-13T00:16:21.520Z,6.80
2023-01-13T00:19:07.139Z,6.70
2023-01-13T00:21:52.554Z,6.80
2023-01-13T00:24:38.299Z,6.70
2023-01-13T00:27:25.327Z,6.80
2023-01-13T00:30:11.378Z,6.70
2023-01-13T00:32:57.770Z,6.70
2023-01-13T00:35:43.692Z,6.70
2023-01-13T00:38:31.581Z,6.60
2023-01-13T00:41:26.770Z,6.60
2023-01-13T00:44:12.421Z,6.60
2023-01-13T00:46:58.246Z,6.60
2023-01-13T00:49:44.793Z,6.50
2023-01-13T00:52:32.687Z,6.60
2023-01-13T00:55:18.411Z,6.60
2023-01-13T00:58:03.916Z,6.50
2023-01-13T01:00:49.868Z,6.50
2023-01-13T01:03:36.075Z,6.50
2023-01-13T01:06:27.431Z,6.60
2023-01-13T01:09:15.237Z,6.50
2023-01-13T01:12:01.610Z,6.60
2023-01-13T01:14:48.496Z,6.60
2023-01-13T01:17:34.598Z,6.70
2023-01-13T01:20:20.676Z,6.60
2023-01-13T01:23:07.197Z,6.60
2023-01-13T01:25:53.662Z,6.60
2023-01-13T01:28:40.644Z,6.50
2023-01-13T01:31:33.386Z,6.40
2023-01-13T01:34:19.427Z,6.40
2023-01-13T01:37:06.480Z,6.50
2023-01-13T01:39:52.581Z,6.40
2023-01-13T01:42:57.280Z,6.30
2023-01-13T01:45:42.714Z,6.30
2023-01-13T01:48:33.055Z,6.30
2023-01-13T01:51:18.703Z,6.50
2023-01-13T01:54:07.681Z,6.50
2023-01-13T01:56:53.766Z,6.40
2023-01-13T01:59:40.194Z,6.40
2023-01-13T02:02:26.274Z,6.30
2023-01-13T02:05:12.406Z,6.30
2023-01-13T02:07:59.781Z,6.30
2023-01-13T02:10:50.334Z,6.20
2023-01-13T02:13:36.002Z,6.30
2023-01-13T02:16:24.769Z,6.30
2023-01-13T02:19:36.194Z,6.50
2023-01-13T02:22:56.312Z,6.40
2023-01-13T02:26:16.021Z,6.60
2023-01-13T02:29:41.328Z,6.50
2023-01-13T02:32:54.236Z,6.50
2023-01-13T02:35:53.770Z,6.50
2023-01-13T02:39:10.657Z,6.40
2023-01-13T02:42:27.768Z,6.20
2023-01-13T02:45:22.568Z,6.30
2023-01-13T02:48:10.747Z,6.30
2023-01-13T02:51:07.554Z,6.20
2023-01-13T02:54:08.651Z,6.40
2023-01-13T02:56:56.427Z,6.40
2023-01-13T02:59:43.091Z,6.20
2023-01-13T03:02:30.826Z,6.30
2023-01-13T03:05:17.552Z,6.40
2023-01-13T03:08:18.671Z,6.40
2023-01-13T03:11:11.877Z,6.40
2023-01-13T03:14:26.124Z,6.10
2023-01-13T03:17:40.688Z,6.30
2023-01-13T03:20:37.796Z,6.30
2023-01-13T03:23:49.066Z,6.20
2023-01-13T03:26:57.883Z,6.20
2023-01-13T03:29:50.582Z,6.20
2023-01-13T03:32:44.194Z,6.10
2023-01-13T03:35:38.080Z,6.20
2023-01-13T03:38:55.903Z,6.20
2023-01-13T03:41:48.717Z,5.90
2023-01-13T03:44:40.911Z,6.00
2023-01-13T03:47:42.018Z,6.10
2023-01-13T03:50:34.870Z,6.10
2023-01-13T03:53:28.809Z,6.10
2023-01-13T03:56:34.050Z,6.20
2023-01-13T03:59:26.846Z,6.10
2023-01-13T04:02:19.702Z,6.10
2023-01-13T04:05:09.351Z,6.00
2023-01-13T04:08:21.208Z,6.20
2023-01-13T04:11:14.700Z,6.10
2023-01-13T04:14:03.250Z,6.30
2023-01-13T04:16:49.273Z,6.30
2023-01-13T04:19:35.127Z,6.40
2023-01-13T04:22:21.114Z,6.20
2023-01-13T04:25:07.646Z,6.40
2023-01-13T04:27:53.612Z,6.30
2023-01-13T04:30:40.016Z,6.40
2023-01-13T04:33:26.840Z,6.40
2023-01-13T04:36:12.888Z,6.40
2023-01-13T04:38:59.091Z,6.40
2023-01-13T04:41:59.504Z,6.40
2023-01-13T04:44:45.779Z,6.30
2023-01-13T04:47:31.700Z,6.40
2023-01-13T04:50:20.969Z,6.40
2023-01-13T04:53:07.362Z,6.30
2023-01-13T04:55:53.244Z,6.40
2023-01-13T04:58:39.463Z,6.50
2023-01-13T05:01:25.851Z,6.50
2023-01-13T05:04:11.865Z,6.50
2023-01-13T05:06:58.808Z,6.50
2023-01-13T05:09:44.619Z,6.70
2023-01-13T05:12:49.196Z,6.70
2023-01-13T05:15:53.685Z,6.60
2023-01-13T05:18:39.556Z,6.70
2023-01-13T05:21:44.304Z,6.70
2023-01-13T05:24:48.644Z,6.70
2023-01-13T05:27:35.305Z,6.60
2023-01-13T05:30:23.505Z,6.60
2023-01-13T05:33:14.945Z,6.70
2023-01-13T05:36:03.309Z,6.80
2023-01-13T05:38:51.104Z,6.80
2023-01-13T05:41:55.031Z,6.80
2023-01-13T05:44:40.873Z,6.80
2023-01-13T05:47:26.759Z,6.80
2023-01-13T05:50:12.483Z,6.90
2023-01-13T05:52:58.247Z,6.90
2023-01-13T05:55:45.003Z,6.90
2023-01-13T05:58:31.405Z,7.00
2023-01-13T06:01:17.266Z,6.90
2023-01-13T06:04:03.265Z,6.80
2023-01-13T06:06:49.241Z,6.80
2023-01-13T06:09:35.241Z,6.90
2023-01-13T06:12:21.346Z,6.80
2023-01-13T06:15:08.532Z,6.90
2023-01-13T06:17:56.480Z,6.90
2023-01-13T06:20:42.268Z,6.90
2023-01-13T06:23:28.809Z,7.00
2023-01-13T06:26:21.827Z,6.90
2023-01-13T06:29:10.076Z,6.80
2023-01-13T06:31:56.729Z,6.90
2023-01-13T06:34:46.387Z,6.80
2023-01-13T06:37:34.580Z,6.90
2023-01-13T06:40:21.155Z,6.90
2023-01-13T06:43:16.533Z,6.90
2023-01-13T06:46:02.869Z,6.90
2023-01-13T06:48:48.781Z,6.90
2023-01-13T06:51:34.718Z,6.90
2023-01-13T06:54:20.292Z,6.90
2023-01-13T06:57:05.979Z,6.90
2023-01-13T06:59:52.162Z,6.90
2023-01-13T07:02:38.383Z,7.00
2023-01-13T07:05:23.888Z,7.00
2023-01-13T07:08:10.271Z,7.10
2023-01-13T07:10:56.612Z,7.00
2023-01-13T07:14:01.662Z,7.00
2023-01-13T07:16:48.284Z,6.90
2023-01-13T07:19:34.408Z,6.90
2023-01-13T07:22:20.698Z,6.90
2023-01-13T07:25:07.699Z,7.00
2023-01-13T07:27:53.274Z,6.90
2023-01-13T07:30:39.436Z,7.00
2023-01-13T07:33:25.566Z,7.00
2023-01-13T07:36:12.132Z,7.00
2023-01-13T07:38:57.790Z,6.90
2023-01-13T07:42:03.317Z,6.90
2023-01-13T07:44:49.082Z,6.90
2023-01-13T07:47:35.159Z,7.00
2023-01-13T07:50:21.601Z,7.00
2023-01-13T07:53:07.768Z,6.90
2023-01-13T07:55:58.967Z,6.90
2023-01-13T07:58:50.168Z,7.00
2023-01-13T08:01:35.863Z,7.10
2023-01-13T08:04:22.675Z,7.00
2023-01-13T08:07:08.824Z,7.10
2023-01-13T08:09:54.760Z,7.10
2023-01-13T08:12:59.455Z,7.00
2023-01-13T08:15:46.124Z,6.80
2023-01-13T08:18:33.023Z,6.90
2023-01-13T08:21:18.495Z,6.80
2023-01-13T08:24:04.840Z,6.90
2023-01-13T08:26:50.603Z,6.90
2023-01-13T08:29:36.070Z,6.90
2023-01-13T08:32:21.949Z,6.90
2023-01-13T08:35:08.052Z,6.90
2023-01-13T08:37:53.910Z,6.80
2023-01-13T08:40:40.621Z,6.90
2023-01-13T08:43:26.723Z,6.90
2023-01-13T08:46:13.424Z,7.00
2023-01-13T08:48:59.445Z,7.00
2023-01-13T08:51:45.436Z,7.00
2023-01-13T08:54:31.225Z,7.10
2023-01-13T08:57:19.444Z,7.20
2023-01-13T09:00:08.379Z,7.20
2023-01-13T09:02:54.244Z,7.30
2023-01-13T09:05:40.623Z,7.30
2023-01-13T09:08:26.683Z,7.20
2023-01-13T09:11:43.837Z,7.20
2023-01-13T09:14:33.430Z,7.30
2023-01-13T09:17:20.021Z,7.40
2023-01-13T09:20:06.667Z,7.20
2023-01-13T09:22:53.316Z,7.30
2023-01-13T09:25:40.920Z,7.30
2023-01-13T09:28:27.314Z,7.30
2023-01-13T09:31:13.688Z,7.30
2023-01-13T09:34:18.625Z,7.30
2023-01-13T09:37:06.490Z,7.40
2023-01-13T09:39:53.309Z,7.40
2023-01-13T09:43:17.410Z,7.30
2023-01-13T09:46:36.533Z,7.20
2023-01-13T09:49:33.481Z,7.30
2023-01-13T09:52:27.409Z,7.30
2023-01-13T09:55:30.930Z,7.20
2023-01-13T09:58:18.807Z,7.20
2023-01-13T10:01:14.286Z,7.40
2023-01-13T10:04:09.400Z,7.20
2023-01-13T10:07:01.500Z,7.20
2023-01-13T10:09:54.116Z,7.40
2023-01-13T10:13:00.377Z,7.40
2023-01-13T10:16:09.751Z,7.50
2023-01-13T10:19:15.113Z,7.40
2023-01-13T10:22:41.013Z,7.50
2023-01-13T10:25:51.362Z,7.50
2023-01-13T10:28:37.130Z,7.60
2023-01-13T10:31:24.835Z,7.50
2023-01-13T10:34:11.990Z,7.60
2023-01-13T10:37:06.529Z,7.50
2023-01-13T10:39:57.392Z,7.70
2023-01-13T10:42:43.683Z,7.70
2023-01-13T10:45:30.104Z,7.80
2023-01-13T10:48:15.792Z,7.80
2023-01-13T10:51:18.448Z,7.80
2023-01-13T10:54:12.538Z,7.80
2023-01-13T10:57:19.271Z,7.80
2023-01-13T11:00:06.292Z,7.80
2023-01-13T11:03:16.853Z,7.80
2023-01-13T11:06:02.618Z,7.90
2023-01-13T11:08:51.544Z,8.00
2023-01-13T11:11:44.290Z,7.90
2023-01-13T11:14:44.313Z,7.90
2023-01-13T11:17:40.239Z,7.90
2023-01-13T11:20:41.279Z,7.90
2023-01-13T11:23:34.954Z,8.00
2023-01-13T11:26:35.655Z,7.90
2023-01-13T11:29:38.333Z,8.10
2023-01-13T11:32:25.021Z,8.10
2023-01-13T11:35:21.571Z,8.20
2023-01-13T11:38:20.682Z,8.20
2023-01-13T11:41:32.784Z,8.30
2023-01-13T11:44:38.716Z,8.20
2023-01-13T11:47:26.728Z,8.20
2023-01-13T11:50:41.803Z,8.20
2023-01-13T11:54:22.587Z,8.20
2023-01-13T11:57:10.844Z,8.20
2023-01-13T12:00:02.573Z,8.20
2023-01-13T12:03:23.014Z,8.20
2023-01-13T12:06:15.756Z,8.30
2023-01-13T12:09:19.212Z,8.30
2023-01-13T12:12:37.331Z,8.40
2023-01-13T12:15:35.939Z,8.60
2023-01-13T12:18:47.470Z,8.70
2023-01-13T12:21:40.192Z,8.50
2023-01-13T12:24:38.985Z,8.50
2023-01-13T12:27:31.224Z,8.50
2023-01-13T12:30:25.504Z,8.50
2023-01-13T12:33:49.604Z,8.60
2023-01-13T12:37:12.215Z,8.80
2023-01-13T12:40:17.716Z,9.00
2023-01-13T12:43:34.854Z,8.90
2023-01-13T12:46:24.492Z,9.00
2023-01-13T12:49:23.971Z,9.20
2023-01-13T12:52:14.425Z,8.90
2023-01-13T12:55:07.952Z,9.00
2023-01-13T12:58:05.940Z,9.10
2023-01-13T13:00:59.097Z,9.20
2023-01-13T13:04:08.473Z,9.10
2023-01-13T13:07:08.421Z,9.10
2023-01-13T13:10:05.901Z,9.00
2023-01-13T13:13:18.151Z,8.90
2023-01-13T13:16:44.237Z,9.20
2023-01-13T13:19:33.294Z,9.30
2023-01-13T13:22:22.578Z,9.40
2023-01-13T13:25:21.296Z,9.50
2023-01-13T13:28:18.174Z,9.80
2023-01-13T13:31:26.844Z,9.90
2023-01-13T13:34:21.478Z,10.10
2023-01-13T13:37:26.594Z,10.30
2023-01-13T13:40:33.772Z,10.50
2023-01-13T13:43:39.122Z,10.60
2023-01-13T13:46:49.195Z,10.60
2023-01-13T13:49:50.033Z,10.20
2023-01-13T13:52:51.332Z,9.70
2023-01-13T13:55:38.591Z,9.70
2023-01-13T13:58:26.401Z,9.80
2023-01-13T14:01:28.527Z,9.90
2023-01-13T14:04:26.072Z,10.70
2023-01-13T14:07:20.540Z,10.90
2023-01-13T14:10:19.771Z,10.90
2023-01-13T14:13:15.352Z,11.10
2023-01-13T14:16:06.187Z,10.40
2023-01-13T14:18:52.742Z,10.40
2023-01-13T14:21:39.218Z,11.00
2023-01-13T14:24:26.065Z,12.20
2023-01-13T14:27:17.334Z,12.90
2023-01-13T14:30:03.650Z,14.10
2023-01-13T14:32:49.675Z,14.20
2023-01-13T14:35:35.592Z,12.90
2023-01-13T14:38:21.010Z,11.40
2023-01-13T14:41:28.234Z,11.20
2023-01-13T14:44:20.666Z,11.60
2023-01-13T14:47:28.378Z,13.80
2023-01-13T14:50:24.712Z,13.80
2023-01-13T14:53:36.272Z,13.10
2023-01-13T14:56:53.603Z,13.00
2023-01-13T14:59:51.640Z,13.70
2023-01-13T15:02:44.736Z,14.20
2023-01-13T15:05:34.408Z,14.10
2023-01-13T15:08:31.990Z,14.10
2023-01-13T15:11:26.614Z,12.90
2023-01-13T15:14:12.485Z,11.80
2023-01-13T15:16:58.224Z,11.40
2023-01-13T15:19:43.980Z,11.10
2023-01-13T15:22:30.167Z,11.10
2023-01-13T15:25:16.702Z,10.90
2023-01-13T15:28:04.394Z,10.70
2023-01-13T15:30:51.746Z,10.70
2023-01-13T15:33:39.956Z,10.60
2023-01-13T15:36:31.420Z,10.40
2023-01-13T15:39:17.109Z,10.20
2023-01-13T15:42:21.380Z,10.10
2023-01-13T15:45:28.213Z,10.10
2023-01-13T15:48:13.794Z,10.00
2023-01-13T15:51:00.628Z,9.90
2023-01-13T15:53:48.567Z,9.70
2023-01-13T15:56:37.764Z,9.70
2023-01-13T15:59:27.654Z,9.60
2023-01-13T16:02:18.141Z,9.40
2023-01-13T16:05:05.353Z,9.30
2023-01-13T16:07:50.912Z,9.20
2023-01-13T16:10:37.313Z,9.20
2023-01-13T16:13:22.900Z,9.20
2023-01-13T16:16:20.651Z,9.10
2023-01-13T16:19:06.784Z,9.10
2023-01-13T16:21:53.127Z,9.10
2023-01-13T16:24:39.377Z,9.10
2023-01-13T16:27:25.764Z,9.10
2023-01-13T16:30:20.691Z,9.00
2023-01-13T16:33:06.684Z,8.90
2023-01-13T16:36:10.638Z,9.00
2023-01-13T16:38:57.840Z,8.90
2023-01-13T16:41:44.039Z,8.80
2023-01-13T16:44:29.820Z,8.70
2023-01-13T16:47:17.644Z,8.70
2023-01-13T16:50:04.148Z,8.50
2023-01-13T16:52:49.724Z,8.60
2023-01-13T16:55:36.905Z,8.60
2023-01-13T16:58:23.336Z,8.60
2023-01-13T17:01:20.237Z,8.50
2023-01-13T17:04:06.397Z,8.40
2023-01-13T17:06:58.484Z,8.50
2023-01-13T17:09:45.406Z,8.50
2023-01-13T17:12:30.948Z,8.40
2023-01-13T17:15:19.715Z,8.30
2023-01-13T17:18:06.547Z,8.30
2023-01-13T17:20:52.702Z,8.20
2023-01-13T17:23:38.257Z,8.20
2023-01-13T17:26:33.482Z,8.30
2023-01-13T17:29:27.099Z,8.30
2023-01-13T17:32:18.268Z,8.20
2023-01-13T17:35:04.105Z,8.20
2023-01-13T17:37:50.433Z,8.10
2023-01-13T17:40:37.224Z,8.10
2023-01-13T17:43:23.456Z,8.10
2023-01-13T17:46:13.853Z,8.10
2023-01-13T17:48:59.762Z,8.00
2023-01-13T17:51:48.422Z,8.00
2023-01-13T17:54:34.428Z,8.00
2023-01-13T17:57:20.522Z,8.00
2023-01-13T18:00:07.068Z,7.90
2023-01-13T18:02:57.713Z,7.90
2023-01-13T18:05:44.268Z,7.90
2023-01-13T18:08:30.451Z,7.70
2023-01-13T18:11:18.901Z,7.80
2023-01-13T18:14:06.489Z,7.80
2023-01-13T18:16:52.890Z,7.90
2023-01-13T18:19:56.867Z,7.90
2023-01-13T18:23:01.596Z,7.80
2023-01-13T18:26:06.043Z,7.90
2023-01-13T18:28:51.495Z,7.90
2023-01-13T18:31:37.292Z,7.90
2023-01-13T18:34:23.343Z,7.80
2023-01-13T18:37:11.358Z,7.80
2023-01-13T18:39:57.153Z,7.80
2023-01-13T18:42:54.141Z,7.80
2023-01-13T18:45:40.943Z,7.70
2023-01-13T18:48:26.927Z,7.60
2023-01-13T18:51:12.556Z,7.60
2023-01-13T18:53:58.826Z,7.50
2023-01-13T18:56:45.099Z,7.60
2023-01-13T18:59:32.897Z,7.60
2023-01-13T19:02:20.688Z,7.60
2023-01-13T19:05:07.715Z,7.60
2023-01-13T19:07:53.824Z,7.60
2023-01-13T19:10:40.051Z,7.60
2023-01-13T19:13:25.752Z,7.50
2023-01-13T19:16:12.385Z,7.40
2023-01-13T19:18:59.523Z,7.40
2023-01-13T19:21:46.061Z,7.40
2023-01-13T19:24:32.980Z,7.50
2023-01-13T19:27:20.482Z,7.50
2023-01-13T19:30:06.697Z,7.50
2023-01-13T19:32:53.655Z,7.40
2023-01-13T19:35:40.376Z,7.40
2023-01-13T19:38:27.755Z,7.40
2023-01-13T19:41:33.420Z,7.40
2023-01-13T19:44:51.712Z,7.40
2023-01-13T19:47:38.838Z,7.30
2023-01-13T19:50:25.036Z,7.20
2023-01-13T19:53:20.659Z,7.30
2023-01-13T19:56:07.783Z,7.30
2023-01-13T19:58:54.346Z,7.30
2023-01-13T20:01:41.462Z,7.40
2023-01-13T20:04:34.231Z,7.30
2023-01-13T20:07:21.040Z,7.20
2023-01-13T20:10:08.146Z,7.20
2023-01-13T20:12:55.117Z,7.20
2023-01-13T20:15:43.151Z,7.20
2023-01-13T20:18:35.871Z,7.20
2023-01-13T20:21:23.564Z,7.20
2023-01-13T20:24:17.442Z,7.20
2023-01-13T20:27:05.063Z,7.30
2023-01-13T20:29:51.918Z,7.10
2023-01-13T20:32:39.206Z,7.10
2023-01-13T20:35:29.969Z,7.10
2023-01-13T20:38:16.879Z,7.10
2023-01-13T20:41:23.441Z,7.00
2023-01-13T20:44:13.834Z,7.00
2023-01-13T20:47:00.507Z,7.00
2023-01-13T20:49:47.863Z,7.00
2023-01-13T20:52:37.904Z,7.10
2023-01-13T20:55:24.727Z,7.00
2023-01-13T20:58:11.665Z,7.00
2023-01-13T21:01:00.067Z,7.00
2023-01-13T21:03:47.165Z,7.00
2023-01-13T21:06:34.601Z,6.90
2023-01-13T21:09:23.563Z,7.00
2023-01-13T21:12:33.199Z,7.00
2023-01-13T21:15:22.200Z,7.00
2023-01-13T21:18:27.372Z,6.80
2023-01-13T21:21:14.172Z,6.80
2023-01-13T21:24:00.604Z,6.80
2023-01-13T21:26:52.300Z,6.90
2023-01-13T21:29:39.115Z,6.90
2023-01-13T21:32:26.171Z,6.80
2023-01-13T21:35:13.908Z,6.80
2023-01-13T21:38:00.343Z,6.80
2023-01-13T21:40:47.146Z,6.70
2023-01-13T21:43:53.998Z,6.80
2023-01-13T21:46:57.994Z,6.80
2023-01-13T21:49:44.180Z,6.70
2023-01-13T21:52:30.861Z,6.70
2023-01-13T21:55:19.842Z,6.80
2023-01-13T21:58:13.768Z,6.70
2023-01-13T22:01:01.508Z,6.40
2023-01-13T22:04:05.637Z,6.60
2023-01-13T22:06:51.604Z,6.60
2023-01-13T22:09:39.400Z,6.60
2023-01-13T22:12:27.608Z,6.60
2023-01-13T22:15:15.653Z,6.60
2023-01-13T22:18:01.560Z,6.60
2023-01-13T22:20:49.165Z,6.60
2023-01-13T22:23:35.238Z,6.50
2023-01-13T22:26:21.426Z,6.60
2023-01-13T22:29:07.051Z,6.50
2023-01-13T22:31:53.824Z,6.50
2023-01-13T22:34:40.460Z,6.50
2023-01-13T22:37:26.500Z,6.50
2023-01-13T22:40:12.597Z,6.40
2023-01-13T22:42:58.483Z,6.40
2023-01-13T22:45:44.459Z,6.40
2023-01-13T22:48:30.751Z,6.40
2023-01-13T22:51:18.622Z,6.40
2023-01-13T22:54:05.451Z,6.40
2023-01-13T22:56:51.421Z,6.30
2023-01-13T22:59:37.093Z,6.30
2023-01-13T23:02:22.602Z,6.20
2023-01-13T23:05:08.689Z,6.20
2023-01-13T23:07:54.661Z,6.20
2023-01-13T23:10:41.143Z,6.10
2023-01-13T23:13:27.185Z,6.20
2023-01-13T23:16:16.438Z,6.20
2023-01-13T23:19:03.191Z,6.10
2023-01-13T23:21:48.688Z,6.00
2023-01-13T23:24:34.607Z,6.20
2023-01-13T23:27:20.022Z,6.20
2023-01-13T23:30:08.682Z,6.10
2023-01-13T23:32:54.083Z,6.00
2023-01-13T23:35:39.598Z,6.10
2023-01-13T23:38:25.808Z,6.10
2023-01-13T23:41:15.507Z,5.90
2023-01-13T23:44:01.977Z,6.00
2023-01-13T23:46:48.743Z,5.90
2023-01-13T23:49:34.537Z,5.80
2023-01-13T23:52:34.141Z,5.90
2023-01-13T23:55:20.315Z,5.90
2023-01-13T23:58:05.915Z,6.00
